SBPV Informações do Aeroporto

Informações da Pista
Pista 1 Comprimento 7874 ft Largura 148 ft
Elevação 0 ft Limite 0 ft Heading 0
Pista 19 Comprimento 7874 ft Largura 148 ft
Elevação 0 ft Limite 0 ft Heading 0
Frequências do Aeroporto
Tipo APP Nome APP Frequência 119.1 MHZ
Tipo OPS Nome OPS Frequência 122.5 MHZ
Tipo TWR Nome TWR Frequência 118.7 MHZ
Navaids do Aeroporto
Tipo VOR-DME Nome Porto Velho Frequência 112700 KHZ
Tipo NDB Nome Porto Velho Frequência 385 KHZ
Informações meteorológicas do aeroporto e NOTAM
ADDS - METARS form results

(2311 UTC 22 March 2019)
Data provider http://aviationweather.gov/metar/data/
 
METAR text: SBPV 222300Z 04002KT 9999 FEW030 SCT100 28/23 Q1008
Conditions at: SBPV (PORTO VELHO(CV/M, BR) observed 2300 UTC 22 March 2019
Temperature: 28.0°C (82°F)
Dewpoint: 23.0°C (73°F) [RH = 74%]
Pressure (altimeter): 29.76 inches Hg (1008.0 mb)
Winds: from the NE (40 degrees) at 2 MPH (2 knots; 1.0 m/s)
Visibility: 6 or more miles (10+ km)
Ceiling: at least 12,000 feet AGL
Clouds: few clouds at 3000 feet AGL
scattered clouds at 10000 feet AGL
Weather: no significant weather observed at this time